createdAt,value
2022-10-28T00:01:15.466Z,9.60
2022-10-28T00:03:52.125Z,7.72
2022-10-28T00:06:22.952Z,8.73
2022-10-28T00:08:50.209Z,5.28
2022-10-28T00:11:20.410Z,17.60
2022-10-28T00:13:47.779Z,10.32
2022-10-28T00:16:24.069Z,7.75
2022-10-28T00:18:54.165Z,14.90
2022-10-28T00:21:25.215Z,8.40
2022-10-28T00:23:52.624Z,9.43
2022-10-28T00:26:21.980Z,7.55
2022-10-28T00:28:51.404Z,9.05
2022-10-28T00:31:20.033Z,6.43
2022-10-28T00:33:47.282Z,5.78
2022-10-28T00:36:23.445Z,6.55
2022-10-28T00:38:52.841Z,6.82
2022-10-28T00:41:41.519Z,5.93
2022-10-28T00:44:45.952Z,7.45
2022-10-28T00:47:36.122Z,5.18
2022-10-28T00:50:19.639Z,5.47
2022-10-28T00:52:51.552Z,7.97
2022-10-28T00:55:19.985Z,6.22
2022-10-28T00:57:47.838Z,15.93
2022-10-28T01:00:15.600Z,6.35
2022-10-28T01:02:47.806Z,7.28
2022-10-28T01:05:19.307Z,9.55
2022-10-28T01:07:46.536Z,5.70
2022-10-28T01:10:15.254Z,11.23
2022-10-28T01:13:37.719Z,7.25
2022-10-28T01:16:41.752Z,16.58
2022-10-28T01:19:50.196Z,5.95
2022-10-28T01:22:55.867Z,8.45
2022-10-28T01:26:09.260Z,9.35
2022-10-28T01:29:43.849Z,10.80
2022-10-28T01:32:26.829Z,7.75
2022-10-28T01:35:09.856Z,10.27
2022-10-28T01:37:47.816Z,12.02
2022-10-28T01:40:49.162Z,9.15
2022-10-28T01:46:54.630Z,8.48
2022-10-28T01:49:31.299Z,9.88
2022-10-28T01:52:03.977Z,8.77
2022-10-28T01:54:34.375Z,10.13
2022-10-28T01:57:04.040Z,9.50
2022-10-28T01:59:33.956Z,6.93
2022-10-28T02:04:32.801Z,10.40
2022-10-28T02:07:01.356Z,18.73
2022-10-28T02:10:00.619Z,9.10
2022-10-28T02:12:37.249Z,9.98
2022-10-28T02:16:02.721Z,11.65
2022-10-28T02:22:04.734Z,6.78
2022-10-28T02:25:05.978Z,7.40
2022-10-28T02:28:03.220Z,13.43
2022-10-28T02:30:46.545Z,14.02
2022-10-28T02:33:19.817Z,7.70
2022-10-28T02:35:51.418Z,6.85
2022-10-28T02:38:41.688Z,7.50
2022-10-28T02:41:54.645Z,14.98
2022-10-28T02:44:28.488Z,9.23
2022-10-28T02:46:58.172Z,15.02
2022-10-28T02:49:27.125Z,8.95
2022-10-28T02:51:58.601Z,13.07
2022-10-28T02:54:38.032Z,15.10
2022-10-28T02:57:10.370Z,8.98
2022-10-28T02:59:37.242Z,13.68
2022-10-28T03:02:04.476Z,11.52
2022-10-28T03:04:31.526Z,10.52
2022-10-28T03:06:58.580Z,10.77
2022-10-28T03:09:25.488Z,5.80
2022-10-28T03:11:52.467Z,9.00
2022-10-28T03:14:19.405Z,6.13
2022-10-28T03:16:46.369Z,12.13
2022-10-28T03:19:13.334Z,12.82
2022-10-28T03:21:40.271Z,17.67
2022-10-28T03:24:07.561Z,16.45
2022-10-28T03:26:34.537Z,8.57
2022-10-28T03:29:01.482Z,12.90
2022-10-28T03:31:28.499Z,16.33
2022-10-28T03:33:55.497Z,14.35
2022-10-28T03:36:22.367Z,7.93
2022-10-28T03:38:49.424Z,16.85
2022-10-28T03:41:16.407Z,13.30
2022-10-28T03:43:43.390Z,11.40
2022-10-28T03:46:10.425Z,13.50
2022-10-28T03:48:37.427Z,9.55
2022-10-28T03:51:04.590Z,10.43
2022-10-28T03:53:31.686Z,6.28
2022-10-28T03:56:01.203Z,16.90
2022-10-28T03:58:28.721Z,7.43
2022-10-28T04:00:56.480Z,12.20
2022-10-28T04:03:25.184Z,9.50
2022-10-28T04:05:52.610Z,14.45
2022-10-28T04:08:20.563Z,9.70
2022-10-28T04:10:47.866Z,8.23
2022-10-28T04:13:18.537Z,15.18
2022-10-28T04:15:45.523Z,8.13
2022-10-28T04:18:12.536Z,8.43
2022-10-28T04:20:39.966Z,7.40
2022-10-28T04:23:06.909Z,13.85
2022-10-28T04:25:33.881Z,6.85
2022-10-28T04:28:00.866Z,10.77
2022-10-28T04:30:27.885Z,14.43
2022-10-28T04:32:54.857Z,13.07
2022-10-28T04:35:21.815Z,13.73
2022-10-28T04:37:48.772Z,7.95
2022-10-28T04:40:15.792Z,23.13
2022-10-28T04:42:42.780Z,17.58
2022-10-28T04:45:10.405Z,10.45
2022-10-28T04:47:37.359Z,9.02
2022-10-28T04:50:04.867Z,7.55
2022-10-28T04:52:31.790Z,12.82
2022-10-28T04:54:58.853Z,11.45
2022-10-28T04:57:25.947Z,10.43
2022-10-28T04:59:52.998Z,10.25
2022-10-28T05:02:22.202Z,24.08
2022-10-28T05:04:49.303Z,25.90
2022-10-28T05:07:18.683Z,23.17
2022-10-28T05:09:51.179Z,17.20
2022-10-28T05:12:19.809Z,15.07
2022-10-28T05:14:48.997Z,11.70
2022-10-28T05:17:18.207Z,12.15
2022-10-28T05:19:45.461Z,12.30
2022-10-28T05:22:12.519Z,17.95
2022-10-28T05:24:39.600Z,32.33
2022-10-28T05:27:06.639Z,31.58
2022-10-28T05:29:33.630Z,40.97
2022-10-28T05:32:01.055Z,18.70
2022-10-28T05:34:28.750Z,18.73
2022-10-28T05:36:55.804Z,18.08
2022-10-28T05:39:22.645Z,25.30
2022-10-28T05:41:49.633Z,15.05
2022-10-28T05:44:16.702Z,9.68
2022-10-28T05:46:43.826Z,17.85
2022-10-28T05:49:10.818Z,33.38
2022-10-28T05:51:37.890Z,18.98
2022-10-28T05:54:05.182Z,25.73
2022-10-28T05:56:32.199Z,10.70
2022-10-28T05:58:59.460Z,12.07
2022-10-28T06:01:26.820Z,16.35
2022-10-28T06:03:54.222Z,9.23
2022-10-28T06:06:21.343Z,11.93
2022-10-28T06:08:48.271Z,10.25
2022-10-28T06:11:13.747Z,10.25
2022-10-28T06:13:40.852Z,9.60
2022-10-28T06:16:08.496Z,9.85
2022-10-28T06:18:35.651Z,18.85
2022-10-28T06:21:03.354Z,10.52
2022-10-28T06:23:30.447Z,22.50
2022-10-28T06:25:59.475Z,11.77
2022-10-28T06:28:27.813Z,15.95
2022-10-28T06:31:01.508Z,14.02
2022-10-28T06:33:28.556Z,18.67
2022-10-28T06:35:56.913Z,27.52
2022-10-28T06:38:24.664Z,17.25
2022-10-28T06:40:52.637Z,19.08
2022-10-28T06:43:20.002Z,30.67
2022-10-28T06:45:52.249Z,19.15
2022-10-28T06:48:21.030Z,23.80
2022-10-28T06:50:48.078Z,23.17
2022-10-28T06:53:15.091Z,14.45
2022-10-28T06:55:42.087Z,18.08
2022-10-28T06:58:10.144Z,19.30
2022-10-28T07:00:37.138Z,25.90
2022-10-28T07:03:04.497Z,31.13
2022-10-28T07:05:31.609Z,26.98
2022-10-28T07:07:58.694Z,39.35
2022-10-28T07:10:25.889Z,41.85
2022-10-28T07:12:58.473Z,47.28
2022-10-28T07:15:25.690Z,50.50
2022-10-28T07:17:58.226Z,44.35
2022-10-28T07:20:27.189Z,39.88
2022-10-28T07:22:58.505Z,33.33
2022-10-28T07:25:27.541Z,40.65
2022-10-28T07:27:56.878Z,27.98
2022-10-28T07:30:24.333Z,40.08
2022-10-28T07:32:51.466Z,39.00
2022-10-28T07:35:18.701Z,20.40
2022-10-28T07:37:46.016Z,17.77
2022-10-28T07:40:13.427Z,22.00
2022-10-28T07:42:40.581Z,25.83
2022-10-28T07:45:08.153Z,26.05
2022-10-28T07:47:35.302Z,22.55
2022-10-28T07:50:02.833Z,20.25
2022-10-28T07:52:29.979Z,27.38
2022-10-28T07:54:57.072Z,30.80
2022-10-28T07:57:24.110Z,17.83
2022-10-28T07:59:51.875Z,29.80
2022-10-28T08:02:24.501Z,18.58
2022-10-28T08:04:51.884Z,20.45
2022-10-28T08:07:19.859Z,19.40
2022-10-28T08:09:46.973Z,21.35
2022-10-28T08:12:15.278Z,27.42
2022-10-28T08:14:42.292Z,18.67
2022-10-28T08:17:09.343Z,30.90
2022-10-28T08:19:36.415Z,21.20
2022-10-28T08:22:03.897Z,12.18
2022-10-28T08:24:30.970Z,14.18
2022-10-28T08:26:58.032Z,16.85
2022-10-28T08:29:29.069Z,37.17
2022-10-28T08:31:58.016Z,19.42
2022-10-28T08:34:29.953Z,34.35
2022-10-28T08:36:57.709Z,28.48
2022-10-28T08:39:24.820Z,23.10
2022-10-28T08:42:08.108Z,17.40
2022-10-28T08:45:02.159Z,18.25
2022-10-28T08:48:12.753Z,38.75
2022-10-28T08:50:50.757Z,25.33
2022-10-28T08:53:33.828Z,29.75
2022-10-28T08:56:14.664Z,31.80
2022-10-28T08:58:44.086Z,54.53
2022-10-28T09:01:20.839Z,21.77
2022-10-28T09:03:51.516Z,26.27
2022-10-28T09:06:18.528Z,31.42
2022-10-28T09:08:49.579Z,21.45
2022-10-28T09:11:36.885Z,18.92
2022-10-28T09:14:30.737Z,19.13
2022-10-28T09:17:21.677Z,23.75
2022-10-28T09:20:12.798Z,25.83
2022-10-28T09:22:55.882Z,21.77
2022-10-28T09:25:33.015Z,23.23
2022-10-28T09:28:59.086Z,22.75
2022-10-28T09:31:52.827Z,26.30
2022-10-28T09:34:40.746Z,17.70
2022-10-28T09:37:43.457Z,19.85
2022-10-28T09:40:25.270Z,13.05
2022-10-28T09:43:23.218Z,17.27
2022-10-28T09:45:53.618Z,25.52
2022-10-28T09:48:26.089Z,13.40
2022-10-28T09:50:56.181Z,16.52
2022-10-28T09:53:44.381Z,13.15
2022-10-28T09:56:11.651Z,17.58
2022-10-28T09:58:43.118Z,20.25
2022-10-28T10:01:10.231Z,19.67
2022-10-28T10:03:40.178Z,13.32
2022-10-28T10:06:20.241Z,22.55
2022-10-28T10:08:48.376Z,24.52
2022-10-28T10:11:43.863Z,11.43
2022-10-28T10:14:15.377Z,19.85
2022-10-28T10:16:58.000Z,38.20
2022-10-28T10:19:25.051Z,10.32
2022-10-28T10:21:56.954Z,13.73
2022-10-28T10:24:34.854Z,14.30
2022-10-28T10:27:14.588Z,11.40
2022-10-28T10:29:47.537Z,25.30
2022-10-28T10:32:30.865Z,8.00
2022-10-28T10:35:06.854Z,8.00
2022-10-28T10:37:36.093Z,9.52
2022-10-28T10:40:33.823Z,17.30
2022-10-28T10:43:23.116Z,16.80
2022-10-28T10:46:15.172Z,10.13
2022-10-28T10:48:43.437Z,9.57
2022-10-28T10:51:22.396Z,12.25
2022-10-28T10:53:53.121Z,17.52
2022-10-28T10:56:26.625Z,36.20
2022-10-28T10:58:57.575Z,12.23
2022-10-28T11:01:27.625Z,8.00
2022-10-28T11:04:06.435Z,5.18
2022-10-28T11:06:43.087Z,17.45
2022-10-28T11:09:42.587Z,25.50
2022-10-28T11:12:36.039Z,23.92
2022-10-28T11:15:21.480Z,5.18
2022-10-28T11:18:03.745Z,11.13
2022-10-28T11:24:25.564Z,7.88
2022-10-28T11:27:18.593Z,7.32
2022-10-28T11:29:47.014Z,15.40
2022-10-28T11:32:50.190Z,18.80
2022-10-28T11:35:43.324Z,15.20
2022-10-28T11:38:27.304Z,18.00
2022-10-28T11:41:38.838Z,7.20
2022-10-28T11:44:50.448Z,6.43
2022-10-28T11:48:06.728Z,11.65
2022-10-28T11:51:00.427Z,6.75
2022-10-28T11:57:16.501Z,13.07
2022-10-28T12:00:36.001Z,7.15
2022-10-28T12:03:45.038Z,5.88
2022-10-28T12:06:21.587Z,9.77
2022-10-28T12:09:47.677Z,8.23
2022-10-28T12:24:40.234Z,24.33
2022-10-28T12:27:18.860Z,7.35
2022-10-28T12:30:00.445Z,11.27
2022-10-28T12:32:31.927Z,12.80
2022-10-28T12:35:20.242Z,5.50
2022-10-28T12:38:16.539Z,11.90
2022-10-28T12:41:13.363Z,7.65
2022-10-28T12:44:09.571Z,18.55
2022-10-28T12:47:04.889Z,11.40
2022-10-28T12:49:45.842Z,10.57
2022-10-28T12:52:47.419Z,21.05
2022-10-28T12:55:43.657Z,14.68
2022-10-28T12:58:41.016Z,3.72
2022-10-28T13:01:15.103Z,8.43
2022-10-28T13:03:42.726Z,5.70
2022-10-28T13:06:44.171Z,15.07
2022-10-28T13:09:50.963Z,10.13
2022-10-28T13:12:43.369Z,16.90
2022-10-28T13:15:26.530Z,8.52
2022-10-28T13:22:13.503Z,10.48
2022-10-28T13:25:49.167Z,12.65
2022-10-28T13:28:19.650Z,6.45
2022-10-28T13:30:59.445Z,10.90
2022-10-28T13:33:28.942Z,5.45
2022-10-28T13:36:09.335Z,8.50
2022-10-28T13:41:26.905Z,15.75
2022-10-28T13:44:19.924Z,11.80
2022-10-28T13:47:26.010Z,12.55
2022-10-28T13:50:39.043Z,6.40
2022-10-28T13:54:10.006Z,16.35
2022-10-28T13:56:51.437Z,14.65
2022-10-28T13:59:35.801Z,9.35
2022-10-28T14:02:42.845Z,3.72
2022-10-28T14:05:20.759Z,7.30
2022-10-28T14:07:59.072Z,6.97
2022-10-28T14:10:49.933Z,11.90
2022-10-28T14:13:25.028Z,8.27
2022-10-28T14:16:25.631Z,11.10
2022-10-28T14:19:28.054Z,11.50
2022-10-28T14:22:13.273Z,5.53
2022-10-28T14:24:45.937Z,10.07
2022-10-28T14:27:44.804Z,7.28
2022-10-28T14:30:17.828Z,5.60
2022-10-28T14:32:57.556Z,8.02
2022-10-28T14:35:33.850Z,21.67
2022-10-28T14:38:42.236Z,14.27
2022-10-28T14:42:04.872Z,12.82
2022-10-28T14:45:14.586Z,18.83
2022-10-28T14:48:08.743Z,19.00
2022-10-28T14:50:41.231Z,14.32
2022-10-28T14:53:14.774Z,43.25
2022-10-28T14:55:47.645Z,31.08
2022-10-28T14:58:28.417Z,32.72
2022-10-28T15:01:20.648Z,33.80
2022-10-28T15:03:51.621Z,17.15
2022-10-28T15:06:41.933Z,63.47
2022-10-28T15:09:39.909Z,20.42
2022-10-28T15:12:10.232Z,8.73
2022-10-28T15:14:40.601Z,13.27
2022-10-28T15:17:19.712Z,25.80
2022-10-28T15:19:52.052Z,8.10
2022-10-28T15:22:31.405Z,20.02
2022-10-28T15:25:04.732Z,22.17
2022-10-28T15:27:42.967Z,56.83
2022-10-28T15:30:24.682Z,112.38
2022-10-28T15:32:53.068Z,52.28
2022-10-28T15:35:49.331Z,24.88
2022-10-28T15:38:35.315Z,12.38
2022-10-28T15:41:02.219Z,36.67
2022-10-28T15:43:30.896Z,36.80
2022-10-28T15:46:11.278Z,69.07
2022-10-28T15:51:18.558Z,65.15
2022-10-28T15:53:54.324Z,33.38
2022-10-28T15:56:27.938Z,28.73
2022-10-28T15:59:19.676Z,24.73
2022-10-28T16:01:46.815Z,29.48
2022-10-28T16:04:46.699Z,18.05
2022-10-28T16:07:14.047Z,18.00
2022-10-28T16:09:46.737Z,14.25
2022-10-28T16:12:22.725Z,11.23
2022-10-28T16:14:59.200Z,17.55
2022-10-28T16:17:30.276Z,20.42
2022-10-28T16:20:00.504Z,18.45
2022-10-28T16:22:29.366Z,26.52
2022-10-28T16:24:57.625Z,20.98
2022-10-28T16:27:27.088Z,24.33
2022-10-28T16:29:54.444Z,18.40
2022-10-28T16:32:35.395Z,13.52
2022-10-28T16:35:04.121Z,22.75
2022-10-28T16:37:34.422Z,13.15
2022-10-28T16:40:01.608Z,12.38
2022-10-28T16:42:28.511Z,13.60
2022-10-28T16:44:55.591Z,17.02
2022-10-28T16:47:25.801Z,10.75
2022-10-28T16:49:57.129Z,15.32
2022-10-28T16:52:31.365Z,23.40
2022-10-28T16:54:58.990Z,18.13
2022-10-28T16:57:26.612Z,18.27
2022-10-28T16:59:53.953Z,21.60
2022-10-28T17:02:32.603Z,21.65
2022-10-28T17:05:00.241Z,24.75
2022-10-28T17:07:28.123Z,15.57
2022-10-28T17:09:55.229Z,12.63
2022-10-28T17:12:24.964Z,9.23
2022-10-28T17:14:52.047Z,9.38
2022-10-28T17:17:19.399Z,30.85
2022-10-28T17:19:46.909Z,11.23
2022-10-28T17:22:14.275Z,15.93
2022-10-28T17:24:41.245Z,26.73
2022-10-28T17:27:08.544Z,15.13
2022-10-28T17:29:35.727Z,14.50
2022-10-28T17:32:02.838Z,9.85
2022-10-28T17:34:29.964Z,8.90
2022-10-28T17:36:56.987Z,11.40
2022-10-28T17:39:26.428Z,11.45
2022-10-28T17:41:54.113Z,27.42
2022-10-28T17:44:21.398Z,15.73
2022-10-28T17:46:49.479Z,9.57
2022-10-28T17:49:16.821Z,10.57
2022-10-28T17:51:44.124Z,14.32
2022-10-28T17:54:11.443Z,11.40
2022-10-28T17:56:39.436Z,30.13
2022-10-28T17:59:06.475Z,22.55
2022-10-28T18:01:35.152Z,53.95
2022-10-28T18:04:03.910Z,16.40
2022-10-28T18:06:30.820Z,17.42
2022-10-28T18:08:58.561Z,10.43
2022-10-28T18:11:27.702Z,21.60
2022-10-28T18:13:56.456Z,18.05
2022-10-28T18:16:28.186Z,13.38
2022-10-28T18:18:56.264Z,14.60
2022-10-28T18:21:24.659Z,25.35
2022-10-28T18:23:52.964Z,9.55
2022-10-28T18:26:21.016Z,10.35
2022-10-28T18:28:49.245Z,7.55
2022-10-28T18:31:18.958Z,9.80
2022-10-28T18:33:46.941Z,10.50
2022-10-28T18:36:19.115Z,10.75
2022-10-28T18:38:46.073Z,8.20
2022-10-28T18:41:15.342Z,10.00
2022-10-28T18:43:42.633Z,16.98
2022-10-28T18:46:09.924Z,12.02
2022-10-28T18:48:37.148Z,16.23
2022-10-28T18:51:06.949Z,12.43
2022-10-28T18:53:38.727Z,10.93
2022-10-28T18:56:07.611Z,12.93
2022-10-28T18:58:34.746Z,9.32
2022-10-28T19:01:22.322Z,13.40
2022-10-28T19:03:57.283Z,20.10
2022-10-28T19:06:24.964Z,9.40
2022-10-28T19:08:57.887Z,6.90
2022-10-28T19:11:30.199Z,7.07
2022-10-28T19:13:59.107Z,7.82
2022-10-28T19:16:26.635Z,9.52
2022-10-28T19:18:57.560Z,6.53
2022-10-28T19:21:25.444Z,5.03
2022-10-28T19:23:52.850Z,5.65
2022-10-28T19:26:20.123Z,11.48
2022-10-28T19:28:48.663Z,7.40
2022-10-28T19:31:18.583Z,6.85
2022-10-28T19:33:45.791Z,5.90
2022-10-28T19:36:24.133Z,11.65
2022-10-28T19:38:55.762Z,7.40
2022-10-28T19:41:25.341Z,8.35
2022-10-28T19:44:00.312Z,10.13
2022-10-28T19:46:29.433Z,11.98
2022-10-28T19:48:58.806Z,10.93
2022-10-28T19:51:31.217Z,10.50
2022-10-28T19:54:00.510Z,5.53
2022-10-28T19:56:29.669Z,5.82
2022-10-28T19:58:59.447Z,4.55
2022-10-28T20:01:29.285Z,12.15
2022-10-28T20:03:57.137Z,11.60
2022-10-28T20:06:33.609Z,5.32
2022-10-28T20:09:01.042Z,6.43
2022-10-28T20:11:31.924Z,7.88
2022-10-28T20:14:01.080Z,8.43
2022-10-28T20:16:28.839Z,16.40
2022-10-28T20:18:56.896Z,9.48
2022-10-28T20:21:26.186Z,10.15
2022-10-28T20:23:55.728Z,5.20
2022-10-28T20:26:34.233Z,10.63
2022-10-28T20:29:03.956Z,4.60
2022-10-28T20:31:32.552Z,5.80
2022-10-28T20:34:03.596Z,7.63
2022-10-28T20:36:38.259Z,5.15
2022-10-28T20:39:13.169Z,12.57
2022-10-28T20:41:41.367Z,10.52
2022-10-28T20:44:08.655Z,8.98
2022-10-28T20:46:36.097Z,6.93
2022-10-28T20:49:04.501Z,9.02
2022-10-28T20:51:32.845Z,8.30
2022-10-28T20:54:00.101Z,12.27
2022-10-28T20:56:29.396Z,8.70
2022-10-28T20:58:57.934Z,9.45
2022-10-28T21:01:27.746Z,6.80
2022-10-28T21:03:56.865Z,11.38
2022-10-28T21:06:24.183Z,6.38
2022-10-28T21:08:51.390Z,6.60
2022-10-28T21:11:18.606Z,10.13
2022-10-28T21:13:51.936Z,7.57
2022-10-28T21:16:20.029Z,15.18
2022-10-28T21:18:47.357Z,6.22
2022-10-28T21:21:21.995Z,6.40
2022-10-28T21:23:49.280Z,11.00
2022-10-28T21:26:16.225Z,5.28
2022-10-28T21:28:43.574Z,5.45
2022-10-28T21:31:15.554Z,7.32
2022-10-28T21:33:43.002Z,6.45
2022-10-28T21:36:16.035Z,13.70
2022-10-28T21:38:43.619Z,7.70
2022-10-28T21:41:13.630Z,8.40
2022-10-28T21:43:42.826Z,7.28
2022-10-28T21:46:10.440Z,7.28
2022-10-28T21:48:38.796Z,7.95
2022-10-28T21:51:11.638Z,6.78
2022-10-28T21:53:42.957Z,10.30
2022-10-28T21:56:17.143Z,6.95
2022-10-28T21:58:45.286Z,13.65
2022-10-28T22:01:15.945Z,6.95
2022-10-28T22:03:43.273Z,4.10
2022-10-28T22:06:10.780Z,6.20
2022-10-28T22:08:37.705Z,6.30
2022-10-28T22:11:11.951Z,7.22
2022-10-28T22:13:39.056Z,9.02
2022-10-28T22:16:08.609Z,6.30
2022-10-28T22:18:36.751Z,6.65
2022-10-28T22:21:09.462Z,8.82
2022-10-28T22:23:37.005Z,9.15
2022-10-28T22:26:06.931Z,6.60
2022-10-28T22:28:33.977Z,8.57
2022-10-28T22:31:02.922Z,8.77
2022-10-28T22:33:29.889Z,11.43
2022-10-28T22:36:02.096Z,6.70
2022-10-28T22:38:29.206Z,8.85
2022-10-28T22:41:16.132Z,6.53
2022-10-28T22:43:44.838Z,6.47
2022-10-28T22:46:13.486Z,6.85
2022-10-28T22:48:40.561Z,9.60
2022-10-28T22:51:07.546Z,4.97
2022-10-28T22:53:34.493Z,7.53
2022-10-28T22:56:01.449Z,7.28
2022-10-28T22:58:28.733Z,7.75
2022-10-28T23:01:05.680Z,5.85
2022-10-28T23:03:39.985Z,9.93
2022-10-28T23:06:07.695Z,7.72
2022-10-28T23:08:35.029Z,4.20
2022-10-28T23:11:02.095Z,5.80
2022-10-28T23:13:29.306Z,5.15
2022-10-28T23:15:56.429Z,7.15
2022-10-28T23:18:28.185Z,7.63
2022-10-28T23:20:55.147Z,4.18
2022-10-28T23:23:22.054Z,5.90
2022-10-28T23:25:53.186Z,11.45
2022-10-28T23:30:47.562Z,5.40
2022-10-28T23:33:14.682Z,7.63
2022-10-28T23:35:43.072Z,7.57
2022-10-28T23:38:16.698Z,6.75
2022-10-28T23:40:43.702Z,6.85
2022-10-28T23:43:10.620Z,18.02
2022-10-28T23:45:37.549Z,7.32
2022-10-28T23:48:04.629Z,5.78
2022-10-28T23:50:31.657Z,6.78
2022-10-28T23:52:58.751Z,6.43
2022-10-28T23:55:25.828Z,6.40
2022-10-28T23:57:56.464Z,8.30
